Flight Track Log - Related Links

Times and Time Zones

All times are in EDT time to prevent confusion due to time zone crossing. See the N142S flight status page for this flight to view local times or setup timezone preferences in your user account.

Time Position Orientation Groundspeed Altitude Reporting Facility
EDT Latitude Longitude Course Direction KTS MPH feet Rate Location/Type
Sat 10:39:15 AM 36.6231 -76.3581 214° Southwest 124 143 1,800  Level Washington Center
Sat 10:39:58 AM 36.6019 -76.3758 214° Southwest 133 153 2,400 904 Climbing Washington Center
Sat 10:40:28 AM 36.5853 -76.3911 216° Southwest 130 150 2,900 900 Climbing Washington Center
Sat 10:40:58 AM 36.5728 -76.4014 213° Southwest 133 153 3,300 800 Climbing Washington Center
Sat 10:41:28 AM 36.5558 -76.4194 221° Southwest 127 146 3,700 800 Climbing Washington Center
Sat 10:41:58 AM 36.5453 -76.4269 210° Southwest 123 142 4,100 462 Climbing Washington Center
Sat 10:42:59 AM 36.5117 -76.4550 214° Southwest 150 173 4,400 395 Climbing Washington Center
Sat 10:43:14 AM 36.5014 -76.4653 219° Southwest 159 183 4,600 414 Climbing Washington Center
Sat 10:43:57 AM 36.4761 -76.4831 209° Southwest 157 181 4,800 310 Climbing Washington Center
Sat 10:44:12 AM 36.4636 -76.4933 213° Southwest 154 177 4,900 295 Climbing Washington Center
Sat 10:44:58 AM 36.4383 -76.5111 210° Southwest 157 181 5,100 329 Climbing Washington Center
Sat 10:45:25 AM 36.4217 -76.5264 216° Southwest 159 183 5,300 400 Climbing Washington Center
Sat 10:45:58 AM 36.3986 -76.5389 204° Southwest 157 181 5,500 393 Climbing Washington Center
Sat 10:46:26 AM 36.3797 -76.5542 213° Southwest 157 181 5,700 305 Climbing Washington Center
Sat 10:46:57 AM 36.3608 -76.5617 198° South 157 181 5,800 198 Climbing Washington Center
Sat 10:47:57 AM 36.3231 -76.5922 213° Southwest 157 181 6,000 99 Climbing Washington Center
Sat 10:48:58 AM 36.2811 -76.6200 208° Southwest 164 189 6,000 -49 Level Washington Center
Sat 10:49:59 AM 36.2369 -76.6478 207° Southwest 175 201 5,900 -50 Descending Washington Center
Sat 10:50:57 AM 36.1969 -76.6756 209° Southwest 175 201 5,900  Level Washington Center
Sat 10:51:58 AM 36.1531 -76.7058 209° Southwest 175 201 5,900  Level Washington Center
Sat 10:52:58 AM 36.1108 -76.7336 208° Southwest 180 207 5,900  Level Washington Center
Sat 10:53:57 AM 36.0711 -76.7611 209° Southwest 180 207 5,900  Level Washington Center
Sat 10:54:57 AM 36.0269 -76.7889 207° Southwest 180 207 5,900  Level Washington Center
Sat 10:55:58 AM 35.9850 -76.8192 210° Southwest 180 207 5,900  Level Washington Center
Sat 10:56:59 AM 35.9408 -76.8467 207° Southwest 180 207 5,900  Level Washington Center
Sat 10:57:59 AM 35.8989 -76.8742 208° Southwest 180 207 5,900  Level Washington Center
Sat 10:58:58 AM 35.8567 -76.9042 210° Southwest 180 207 5,900  Level Washington Center
Sat 10:59:58 AM 35.8125 -76.9342 209° Southwest 180 207 5,900  Level Washington Center
Sat 11:00:56 AM 35.7789 -76.9719 222° Southwest 180 207 5,900  Level Washington Center
Sat 11:01:57 AM 35.7450 -77.0175 228° Southwest 180 207 5,900  Level Washington Center
Sat 11:02:58 AM 35.7069 -77.0500 215° Southwest 175 201 5,900  Level Washington Center
Sat 11:03:59 AM 35.6772 -77.0853 224° Southwest 170 196 5,900  Level Washington Center
Sat 11:04:57 AM 35.6519 -77.1131 222° Southwest 146 168 5,900 50 Level Washington Center
Sat 11:05:58 AM 35.6283 -77.1533 234° Southwest 140 161 6,000 50 Climbing Washington Center
Sat 11:06:58 AM 35.5883 -77.1936 219° Southwest 159 183 6,000  Level Washington Center
Sat 11:07:47 AM 35.5586 -77.2286 224° Southwest 170 196 6,000  Level Washington Center
Sat 11:07:57 AM 35.5564 -77.2336 241° Southwest 172 198 6,000  Level Washington Center
Sat 11:08:54 AM 35.5206 -77.2711 220° Southwest 167 192 6,000  Level Washington Center
Sat 11:09:58 AM 35.4864 -77.3089 222° Southwest 172 198 6,000  Level Washington Center
Sat 11:10:57 AM 35.4506 -77.3436 218° Southwest 172 198 6,000  Level Washington Center
Sat 11:11:57 AM 35.4167 -77.3839 224° Southwest 172 198 6,000  Level Washington Center
Sat 11:12:58 AM 35.3825 -77.4211 222° Southwest 172 198 6,000  Level Washington Center
Sat 11:13:56 AM 35.3464 -77.4636 224° Southwest 167 192 6,000  Level Washington Center
Sat 11:14:57 AM 35.3125 -77.4986 220° Southwest 172 198 6,000  Level Washington Center
Sat 11:15:09 AM 35.3019 -77.5058 209° Southwest 168 193 6,000  Level Washington Center
Sat 11:15:58 AM 35.2764 -77.5358 224° Southwest 172 198 6,000  Level Washington Center
Sat 11:16:10 AM 35.2681 -77.5458 224° Southwest 168 193 6,000  Level Washington Center
Sat 11:16:59 AM 35.2444 -77.5731 223° Southwest 172 198 6,000  Level Washington Center
Sat 11:17:11 AM 35.2339 -77.5856 224° Southwest 168 193 6,000  Level Washington Center
Sat 11:18:12 AM 35.1936 -77.6203 215° Southwest 168 193 6,000  Level Washington Center
Sat 11:19:12 AM 35.1617 -77.6575 224° Southwest 167 192 6,000  Level Washington Center
Sat 11:21:00 AM 35.0983 -77.7201 219° Southwest  Level FlightAware Approximate
Sat 11:28:00 AM 34.8552 -77.9689 221° Southwest  Level FlightAware Approximate
Sat 11:29:00 AM 34.8210 -78.0050 221° Southwest  Level FlightAware Approximate
Sat 11:30:00 AM 34.7868 -78.0411 221° Southwest  Level FlightAware Approximate
Sat 11:31:00 AM 34.7525 -78.0772 221° Southwest  Level FlightAware Approximate
Sat 11:32:00 AM 34.7183 -78.1132 221° Southwest  Level FlightAware Approximate
Sat 11:33:00 AM 34.6840 -78.1492 221° Southwest  Level FlightAware Approximate
Sat 11:34:00 AM 34.6497 -78.1852 221° Southwest  Level FlightAware Approximate
Sat 11:35:00 AM 34.6155 -78.2212 221° Southwest  Level FlightAware Approximate
Sat 11:36:00 AM 34.5812 -78.2571 221° Southwest  Level FlightAware Approximate
Sat 11:37:00 AM 34.5469 -78.2930 221° Southwest  Level FlightAware Approximate
Sat 11:38:00 AM 34.5125 -78.3288 221° Southwest  Level FlightAware Approximate
Sat 11:39:00 AM 34.4782 -78.3646 221° Southwest  Level FlightAware Approximate
Sat 11:40:00 AM 34.4439 -78.4004 221° Southwest  Level FlightAware Approximate
Sat 11:41:00 AM 34.4095 -78.4362 221° Southwest  Level FlightAware Approximate
Sat 11:42:00 AM 34.3752 -78.4719 221° Southwest  Level FlightAware Approximate
Sat 11:43:00 AM 34.3408 -78.5077 221° Southwest  Level FlightAware Approximate
Sat 11:44:00 AM 34.3064 -78.5433 221° Southwest  Level FlightAware Approximate
Sat 11:45:00 AM 34.2729 -78.5802 223° Southwest  Level FlightAware Approximate
Sat 11:46:00 AM 34.2396 -78.6173 223° Southwest  Level FlightAware Approximate
Sat 11:47:00 AM 34.2063 -78.6544 223° Southwest  Level FlightAware Approximate
Sat 11:48:00 AM 34.1730 -78.6915 223° Southwest  Level FlightAware Approximate
Sat 11:49:00 AM 34.1397 -78.7286 223° Southwest  Level FlightAware Approximate
Sat 11:50:00 AM 34.1063 -78.7656 223° Southwest  Level FlightAware Approximate
Sat 11:51:00 AM 34.0730 -78.8026 223° Southwest  Level FlightAware Approximate
Sat 11:52:00 AM 34.0396 -78.8395 223° Southwest  Level FlightAware Approximate
Sat 11:53:00 AM 34.0062 -78.8764 223° Southwest  Level FlightAware Approximate
Sat 11:54:00 AM 33.9717 -78.9117 220° Southwest  Level FlightAware Approximate
Sat 11:55:00 AM 33.9369 -78.9466 220° Southwest  Level FlightAware Approximate
Sat 11:56:00 AM 33.9020 -78.9814 220° Southwest  Level FlightAware Approximate
Sat 11:57:00 AM 33.8672 -79.0162 220° Southwest  Level FlightAware Approximate
Sat 11:58:00 AM 33.8323 -79.0511 221° Southwest  Level FlightAware Approximate
Sat 11:59:00 AM 33.7981 -79.0867 221° Southwest  Level FlightAware Approximate
Sat 12:00:00 PM 33.7639 -79.1224 221° Southwest  Level FlightAware Approximate
Sat 12:01:00 PM 33.7296 -79.1580 221° Southwest  Level FlightAware Approximate
Sat 12:02:00 PM 33.6954 -79.1936 221° Southwest  Level FlightAware Approximate
Sat 12:03:00 PM 33.6611 -79.2292 221° Southwest  Level FlightAware Approximate
Sat 12:04:00 PM 33.6268 -79.2648 221° Southwest  Level FlightAware Approximate
Sat 12:05:00 PM 33.5925 -79.3003 221° Southwest  Level FlightAware Approximate
Sat 12:06:00 PM 33.5583 -79.3358 221° Southwest  Level FlightAware Approximate
Sat 12:07:00 PM 33.5240 -79.3712 221° Southwest  Level FlightAware Approximate
Sat 12:08:00 PM 33.4896 -79.4067 221° Southwest  Level FlightAware Approximate
Sat 12:09:00 PM 33.4553 -79.4421 221° Southwest  Level FlightAware Approximate
Sat 12:10:00 PM 33.4210 -79.4774 221° Southwest  Level FlightAware Approximate
Sat 12:11:00 PM 33.3866 -79.5128 221° Southwest  Level FlightAware Approximate
Sat 12:12:00 PM 33.3524 -79.5482 221° Southwest  Level FlightAware Approximate
Sat 12:13:00 PM 33.3182 -79.5838 221° Southwest  Level FlightAware Approximate
Sat 12:14:00 PM 33.2840 -79.6193 221° Southwest  Level FlightAware Approximate
Sat 12:15:00 PM 33.2499 -79.6549 221° Southwest  Level FlightAware Approximate
Sat 12:16:00 PM 33.2157 -79.6904 221° Southwest  Level FlightAware Approximate
Sat 12:17:00 PM 33.1815 -79.7258 221° Southwest  Level FlightAware Approximate
Sat 12:18:00 PM 33.1473 -79.7613 221° Southwest  Level FlightAware Approximate
Sat 12:19:00 PM 33.1130 -79.7967 221° Southwest  Level FlightAware Approximate
Sat 12:20:00 PM 33.0788 -79.8320 221° Southwest  Level FlightAware Approximate
Sat 12:21:00 PM 33.0446 -79.8674 221° Southwest  Level FlightAware Approximate
Sat 12:22:00 PM 33.0103 -79.9027 221° Southwest  Level FlightAware Approximate
Sat 12:23:00 PM 32.9760 -79.9380 221° Southwest  Level FlightAware Approximate
Sat 12:24:00 PM 32.9418 -79.9733 221° Southwest  Level FlightAware Approximate
Sat 12:25:00 PM 32.9075 -80.0085 221° Southwest  Level FlightAware Approximate
Sat 12:26:00 PM 32.8720 -80.0418 212° Southwest  Level FlightAware Approximate
Sat 12:27:00 PM 32.8337 -80.0706 212° Southwest  Level FlightAware Approximate
Sat 12:28:00 PM 32.7954 -80.0993 212° Southwest  Level FlightAware Approximate
Sat 12:29:00 PM 32.7571 -80.1280 212° Southwest  Level FlightAware Approximate
Sat 12:30:00 PM 32.7218 -80.1616 220° Southwest  Level FlightAware Approximate
Sat 12:31:00 PM 32.6853 -80.1931 209° Southwest  Level FlightAware Approximate
Sat 12:32:00 PM 32.6459 -80.2196 211° Southwest  Level FlightAware Approximate
Sat 12:33:00 PM 32.6071 -80.2473 211° Southwest  Level FlightAware Approximate
Sat 12:34:00 PM 32.5683 -80.2750 211° Southwest  Level FlightAware Approximate
Sat 12:35:00 PM 32.5297 -80.3030 215° Southwest  Level FlightAware Approximate
Sat 12:36:00 PM 32.4926 -80.3338 215° Southwest  Level FlightAware Approximate
Sat 12:37:00 PM 32.4555 -80.3646 215° Southwest  Level FlightAware Approximate
Sat 12:38:00 PM 32.4184 -80.3953 215° Southwest  Level FlightAware Approximate
Sat 12:39:00 PM 32.3812 -80.4260 215° Southwest  Level FlightAware Approximate
Sat 12:40:00 PM 32.3441 -80.4567 215° Southwest  Level FlightAware Approximate
Sat 12:41:00 PM 32.3070 -80.4874 215° Southwest  Level FlightAware Approximate
Sat 12:42:00 PM 32.2699 -80.5180 215° Southwest  Level FlightAware Approximate
Sat 12:43:00 PM 32.2327 -80.5486 215° Southwest  Level FlightAware Approximate
Sat 12:44:00 PM 32.1955 -80.5792 215° Southwest  Level FlightAware Approximate
Sat 12:45:00 PM 32.1584 -80.6098 215° Southwest  Level FlightAware Approximate
Sat 12:46:00 PM 32.1183 -80.6292 215° Southwest  Level FlightAware Approximate
Sat 12:47:00 PM 32.0814 -80.6601 215° Southwest  Level FlightAware Approximate
Sat 12:48:00 PM 32.0444 -80.6910 215° Southwest  Level FlightAware Approximate
Sat 12:49:00 PM 32.0074 -80.7218 215° Southwest  Level FlightAware Approximate
Sat 12:50:00 PM 31.9705 -80.7526 215° Southwest  Level FlightAware Approximate
Sat 12:51:00 PM 31.9335 -80.7834 215° Southwest  Level FlightAware Approximate
Sat 12:52:00 PM 31.8965 -80.8142 215° Southwest  Level FlightAware Approximate
Sat 12:52:51 PM 31.7131 -80.9314 200° South 177 204 6,000  Level Jacksonville Center
Sat 12:53:00 PM 31.8595 -80.8449 215° Southwest  Level FlightAware Approximate
Sat 12:53:51 PM 31.6756 -80.9469 199° South 187 215 6,000  Level Jacksonville Center
Sat 12:54:00 PM 31.8209 -80.8721 200° South  Level FlightAware Approximate
Sat 12:54:51 PM 31.6258 -80.9675 199° South 187 215 6,000  Level Jacksonville Center
Sat 12:55:00 PM 31.7784 -80.8906 200° South  Level FlightAware Approximate
Sat 12:55:51 PM 31.5781 -80.9881 200° South 192 221 6,000  Level Jacksonville Center
Sat 12:56:00 PM 31.7360 -80.9091 200° South  Level FlightAware Approximate
Sat 12:56:51 PM 31.5325 -81.0083 201° Southwest 187 215 6,000  Level Jacksonville Center
Sat 12:57:00 PM 31.6935 -80.9276 200° South  Level FlightAware Approximate
Sat 12:57:51 PM 31.4847 -81.0289 200° South 187 215 6,000  Level Jacksonville Center
Sat 12:58:51 PM 31.4369 -81.0494 200° South 187 215 6,000  Level Jacksonville Center
Sat 12:59:51 PM 31.3889 -81.0503 181° South 176 203 6,000  Level Jacksonville Center
Sat 01:00:51 PM 31.3411 -81.0536 183° South 176 203 6,000  Level Jacksonville Center
Sat 01:01:51 PM 31.2931 -81.0544 181° South 176 203 6,000  Level Jacksonville Center
Sat 01:02:51 PM 31.2367 -81.0533 179° South 182 209 6,000  Level Jacksonville Center
Sat 01:03:51 PM 31.1867 -81.0567 183° South 182 209 6,000  Level Jacksonville Center
Sat 01:04:51 PM 31.1344 -81.0578 181° South 180 207 6,000  Level Jacksonville Center
Sat 01:05:51 PM 31.0842 -81.0586 181° South 175 201 6,000  Level Jacksonville Center
Sat 01:06:51 PM 31.0300 -81.0644 185° South 182 209 6,000  Level Jacksonville Center
Sat 01:07:51 PM 30.9800 -81.0656 181° South 187 215 6,000  Level Jacksonville Center
Sat 01:08:51 PM 30.9278 -81.0689 183° South 187 215 6,000  Level Jacksonville Center
Sat 01:09:51 PM 30.8797 -81.0675 179° South 187 215 6,000  Level Jacksonville Center
Sat 01:10:51 PM 30.8256 -81.0686 181° South 187 215 6,000  Level Jacksonville Center
Sat 01:11:28 PM 30.7922 -81.0692 181° South 185 213 6,000  Level Jacksonville Center
Sat 01:11:51 PM 30.7756 -81.0719 188° South 187 215 6,000  Level Jacksonville Center
Sat 01:12:53 PM 30.7192 -81.0753 183° South 182 209 6,000  Level Jacksonville Center
Sat 01:13:54 PM 30.6692 -81.0739 179° South 183 211 6,000  Level Jacksonville Center
Sat 01:14:51 PM 30.6211 -81.0772 183° South 182 209 6,000  Level Jacksonville Center
Sat 01:15:51 PM 30.5689 -81.0783 181° South 182 209 6,000  Level Jacksonville Center
Sat 01:16:51 PM 30.5189 -81.0792 181° South 187 215 6,000  Level Jacksonville Center
Sat 01:17:51 PM 30.4686 -81.0825 183° South 182 209 6,000  Level Jacksonville Center
Sat 01:18:51 PM 30.4186 -81.0836 181° South 182 209 6,000  Level Jacksonville Center
Sat 01:19:11 PM 30.3997 -81.0839 181° South 180 207 6,000  Level Jacksonville Center
Sat 01:19:51 PM 30.3686 -81.0844 181° South 182 209 6,000  Level Jacksonville Center
Sat 01:20:07 PM 30.3539 -81.0847 181° South 178 205 6,000  Level Jacksonville Center
Sat 01:20:51 PM 30.3183 -81.0878 184° South 177 204 6,000  Level Jacksonville Center
Sat 01:21:13 PM 30.2975 -81.0858 175° South 179 206 6,000  Level Jacksonville Center
Sat 01:22:15 PM 30.2494 -81.0892 183° South 176 203 6,000  Level Jacksonville Center
Sat 01:23:22 PM 30.1911 -81.0903 181° South 179 206 6,000  Level Jacksonville Center
Sat 01:24:23 PM 30.1431 -81.0936 183° South 178 205 6,000  Level Jacksonville Center
Sat 01:25:30 PM 30.0889 -81.0944 181° South 177 204 6,000  Level Jacksonville Center
Sat 01:26:19 PM 30.0472 -81.0953 181° South 178 205 6,000  Level Jacksonville Center
Sat 01:27:14 PM 30.0014 -81.0986 184° South 178 205 6,000  Level Jacksonville Center
Sat 01:28:19 PM 29.9536 -81.1139 195° South 182 209 6,000  Level Jacksonville Center
Sat 01:29:07 PM 29.9139 -81.1289 198° South 177 204 6,000  Level Jacksonville Center
Sat 01:30:15 PM 29.8642 -81.1394 190° South 176 203 6,000  Level Jacksonville Center
Sat 01:31:09 PM 29.8181 -81.1378 178° South 179 206 6,000  Level Jacksonville Center
Sat 01:32:10 PM 29.7703 -81.1506 193° South 175 201 6,000  Level Jacksonville Center
Sat 01:33:11 PM 29.7203 -81.1636 193° South 173 199 6,000  Level Jacksonville Center
Sat 01:34:06 PM 29.6808 -81.1689 187° South 174 200 6,000  Level Jacksonville Center
Sat 01:35:13 PM 29.6331 -81.1961 206° Southwest 175 201 6,000  Level Jacksonville Center
Sat 01:36:14 PM 29.5853 -81.2089 193° South 177 204 6,000  Level Jacksonville Center
Sat 01:37:15 PM 29.5353 -81.2169 188° South 170 196 6,000  Level Jacksonville Center
Sat 01:38:16 PM 29.4833 -81.2272 190° South 182 209 6,000  Level Jacksonville Center
Sat 01:39:11 PM 29.4394 -81.2328 186° South 177 204 6,000  Level Jacksonville Center
Sat 01:40:05 PM 29.3936 -81.2431 191° South 177 204 6,000 -157 Level Jacksonville Center
Sat 01:41:06 PM 29.3458 -81.2511 188° South 177 204 5,700 -370 Descending Jacksonville Center
Sat 01:42:31 PM 29.2792 -81.2617 188° South 176 203 5,100 -469 Descending Jacksonville Center
Sat 01:43:14 PM 29.2417 -81.2672 187° South 174 200 4,700 -519 Descending Jacksonville Center
Sat 01:44:15 PM 29.1936 -81.2797 193° South 178 205 4,200 -344 Descending Jacksonville Center
Sat 01:45:16 PM 29.1458 -81.2878 188° South 170 196 4,000 -69 Descending Jacksonville Center
Sat 01:47:09 PM 29.0833 -81.3333 212° Southwest 156 180 4,000  Level Orlando TRACON
Sat 01:48:02 PM 29.0500 -81.3667 221° Southwest 156 180 4,000 -90 Level Orlando TRACON
Sat 01:53:49 PM 28.8228 -81.4863 194° South 178 205 3,400 -130 Descending FlightAware ADS-B
Sat 01:54:10 PM 28.8075 -81.4902 193° South 178 205 3,200 -558 Descending FlightAware ADS-B
Sat 01:54:32 PM 28.7888 -81.4953 193° South 178 205 3,000 -429 Descending FlightAware ADS-B
Sat 01:54:52 PM 28.7743 -81.4993 194° South 176 203 2,900 -94 Descending FlightAware ADS-B
Sat 01:55:36 PM 28.7386 -81.5097 194° South 173 199 2,900  Level FlightAware ADS-B
Sat 01:55:56 PM 28.7229 -81.5136 194° South 170 196 2,900  Level FlightAware ADS-B
Sat 01:56:15 PM 28.7083 -81.5175 192° South 168 193 2,900  Level FlightAware ADS-B
Sat 01:57:00 PM 28.6750 -81.5252 190° South 163 188 2,900  Level FlightAware ADS-B
Sat 01:58:02 PM 28.6293 -81.5351 191° South 161 185 2,900  Level FlightAware ADS-B
Sat 01:58:22 PM 28.6142 -81.5385 190° South 161 185 2,900  Level FlightAware ADS-B
Sat 01:58:45 PM 28.5974 -81.5418 190° South 160 184 2,900  Level FlightAware ADS-B
Sat 01:59:06 PM 28.5829 -81.5448 190° South 158 182 2,900  Level FlightAware ADS-B
Sat 01:59:26 PM 28.5679 -81.5478 191° South 159 183 2,900  Level FlightAware ADS-B
Sat 01:59:50 PM 28.5515 -81.5512 190° South 159 183 2,900  Level FlightAware ADS-B
Sat 02:00:10 PM 28.5359 -81.5546 191° South 160 184 2,900  Level FlightAware ADS-B
Sat 02:00:30 PM 28.5212 -81.5580 192° South 162 186 2,900  Level FlightAware ADS-B
Sat 02:00:50 PM 28.5072 -81.5611 191° South 162 186 2,900  Level FlightAware ADS-B
Sat 02:01:54 PM 28.4590 -81.5711 185° South 168 193 2,900  Level FlightAware ADS-B
Sat 02:02:17 PM 28.4436 -81.5713 179° South 166 191 2,900  Level FlightAware ADS-B
Sat 02:02:37 PM 28.4290 -81.5714 181° South 165 190 2,900 -194 Level FlightAware ADS-B
Sat 02:03:19 PM 28.3932 -81.5722 180° South 168 193 2,700 -366 Descending FlightAware ADS-B
Sat 02:03:59 PM 28.3633 -81.5650 158° South 166 191 2,400 -590 Descending FlightAware ADS-B
Sat 02:04:20 PM 28.3483 -81.5595 164° South 167 192 2,100 -732 Descending FlightAware ADS-B
Sat 02:04:40 PM 28.3345 -81.5556 168° South 167 192 1,900 -333 Descending FlightAware ADS-B
Sat 02:05:32 PM 28.2978 -81.5472 132° Southeast 140 161 1,700 -124 Descending FlightAware ADS-B
Sat 02:07:05 PM 28.2550 -81.4998 123° Southeast 137 158 1,600 -52 Descending FlightAware ADS-B
Sat 02:07:28 PM 28.2465 -81.4868 130° Southeast 135 155 1,600 -429 Level FlightAware ADS-B
Sat 02:08:29 PM 28.2369 -81.4481 71° East 131 151 1,000 -593 Descending FlightAware ADS-B
Sat 02:08:49 PM 28.2415 -81.4368 62° Northeast 123 142 800 -469 Descending FlightAware ADS-B
Sat 02:09:33 PM 28.2595 -81.4208 28° Northeast 114 131 500 -476 Descending FlightAware ADS-B
Sat 02:09:52 PM 28.2695 -81.4231 337° Northwest 111 128 300 -692 Descending FlightAware ADS-B
Sat 02:09:59 PM 28.2721 -81.4246 327° Northwest 107 123 200 -857 Descending FlightAware ADS-B
Sat 02:18:00 PM 28.2833 -81.4333 North  Level FlightAware Approximate
Sat 02:19:00 PM 28.2898 -81.4371 North  Level Estimated
Sat 02:20:00 PM 28.2898 -81.4371 North  Level Estimated
Sat 02:21:00 PM 28.2898 -81.4371 North  Level Estimated

Login

Don't have an account? Register now (free) for customized features, flight alerts, and more!